sensor_id;sensor_type;location;lat;lon;timestamp;pressure;altitude;pressure_sealevel;temperature;humidity
72855;BME280;60991;51.278;22.550;2023-06-22T00:00:55;99267.91;;;25.07;53.65
72855;BME280;60991;51.278;22.550;2023-06-22T00:02:26;99263.97;;;25.04;54.00
72855;BME280;60991;51.278;22.550;2023-06-22T00:03:56;99262.72;;;25.02;54.00
72855;BME280;60991;51.278;22.550;2023-06-22T00:05:26;99267.81;;;25.03;53.91
72855;BME280;60991;51.278;22.550;2023-06-22T00:06:56;99263.97;;;25.04;53.71
72855;BME280;60991;51.278;22.550;2023-06-22T00:08:27;99262.03;;;25.05;54.01
72855;BME280;60991;51.278;22.550;2023-06-22T00:09:57;99261.59;;;25.03;53.97
72855;BME280;60991;51.278;22.550;2023-06-22T00:11:27;99259.88;;;24.98;53.97
72855;BME280;60991;51.278;22.550;2023-06-22T00:12:57;99253.97;;;24.96;54.03
72855;BME280;60991;51.278;22.550;2023-06-22T00:14:28;99269.16;;;24.97;54.22
72855;BME280;60991;51.278;22.550;2023-06-22T00:15:58;99264.69;;;24.93;54.39
72855;BME280;60991;51.278;22.550;2023-06-22T00:17:28;99267.72;;;24.91;54.65
72855;BME280;60991;51.278;22.550;2023-06-22T00:18:59;99261.03;;;24.89;54.39
72855;BME280;60991;51.278;22.550;2023-06-22T00:20:29;99257.09;;;24.86;54.66
72855;BME280;60991;51.278;22.550;2023-06-22T00:21:59;99260.56;;;24.86;54.71
72855;BME280;60991;51.278;22.550;2023-06-22T00:23:29;99260.47;;;24.83;54.85
72855;BME280;60991;51.278;22.550;2023-06-22T00:25:00;99255.25;;;24.78;55.36
72855;BME280;60991;51.278;22.550;2023-06-22T00:26:30;99260.34;;;24.79;55.20
72855;BME280;60991;51.278;22.550;2023-06-22T00:28:02;99262.47;;;24.74;55.47
72855;BME280;60991;51.278;22.550;2023-06-22T00:29:32;99261.34;;;24.75;55.49
72855;BME280;60991;51.278;22.550;2023-06-22T00:31:02;99262.94;;;24.76;55.37
72855;BME280;60991;51.278;22.550;2023-06-22T00:32:32;99257.38;;;24.72;55.73
72855;BME280;60991;51.278;22.550;2023-06-22T00:34:03;99261.78;;;24.65;55.92
72855;BME280;60991;51.278;22.550;2023-06-22T00:35:33;99254.16;;;24.58;56.13
72855;BME280;60991;51.278;22.550;2023-06-22T00:37:04;99251.50;;;24.49;56.45
72855;BME280;60991;51.278;22.550;2023-06-22T00:38:34;99249.47;;;24.46;56.20
72855;BME280;60991;51.278;22.550;2023-06-22T00:40:05;99252.25;;;24.38;56.50
72855;BME280;60991;51.278;22.550;2023-06-22T00:41:35;99250.19;;;24.35;56.86
72855;BME280;60991;51.278;22.550;2023-06-22T00:43:06;99249.06;;;24.36;56.96
72855;BME280;60991;51.278;22.550;2023-06-22T00:44:36;99243.25;;;24.25;56.90
72855;BME280;60991;51.278;22.550;2023-06-22T00:46:06;99249.38;;;24.13;57.63
72855;BME280;60991;51.278;22.550;2023-06-22T00:47:37;99249.03;;;24.15;57.64
72855;BME280;60991;51.278;22.550;2023-06-22T00:49:07;99248.13;;;24.11;57.91
72855;BME280;60991;51.278;22.550;2023-06-22T00:50:38;99250.38;;;24.09;57.96
72855;BME280;60991;51.278;22.550;2023-06-22T00:52:10;99247.84;;;24.04;57.82
72855;BME280;60991;51.278;22.550;2023-06-22T00:53:41;99248.78;;;24.08;58.05
72855;BME280;60991;51.278;22.550;2023-06-22T00:55:11;99246.59;;;24.01;58.44
72855;BME280;60991;51.278;22.550;2023-06-22T00:56:42;99236.69;;;24.05;58.12
72855;BME280;60991;51.278;22.550;2023-06-22T00:58:13;99245.66;;;23.97;58.52
72855;BME280;60991;51.278;22.550;2023-06-22T00:59:44;99242.75;;;24.02;58.25
72855;BME280;60991;51.278;22.550;2023-06-22T01:01:15;99264.84;;;24.13;57.94
72855;BME280;60991;51.278;22.550;2023-06-22T01:02:46;99278.88;;;24.15;58.48
72855;BME280;60991;51.278;22.550;2023-06-22T01:04:16;99269.03;;;24.10;58.52
72855;BME280;60991;51.278;22.550;2023-06-22T01:05:47;99255.25;;;23.95;58.44
72855;BME280;60991;51.278;22.550;2023-06-22T01:07:43;99250.69;;;23.87;58.82
72855;BME280;60991;51.278;22.550;2023-06-22T01:09:21;99240.97;;;23.86;58.62
72855;BME280;60991;51.278;22.550;2023-06-22T01:11:15;99244.66;;;23.81;58.90
72855;BME280;60991;51.278;22.550;2023-06-22T01:12:51;99235.53;;;23.86;58.70
72855;BME280;60991;51.278;22.550;2023-06-22T01:14:59;99242.22;;;23.88;58.65
72855;BME280;60991;51.278;22.550;2023-06-22T01:16:32;99237.53;;;23.97;58.69
72855;BME280;60991;51.278;22.550;2023-06-22T01:18:04;99235.28;;;23.99;58.29
72855;BME280;60991;51.278;22.550;2023-06-22T01:19:46;99234.16;;;24.00;58.66
72855;BME280;60991;51.278;22.550;2023-06-22T01:21:19;99225.84;;;24.05;58.60
72855;BME280;60991;51.278;22.550;2023-06-22T01:23:09;99227.31;;;23.94;58.57
72855;BME280;60991;51.278;22.550;2023-06-22T01:25:20;99231.56;;;23.83;59.27
72855;BME280;60991;51.278;22.550;2023-06-22T01:28:46;99229.13;;;23.90;58.86
72855;BME280;60991;51.278;22.550;2023-06-22T01:30:18;99233.44;;;23.91;59.06
72855;BME280;60991;51.278;22.550;2023-06-22T01:31:50;99226.28;;;23.87;59.17
72855;BME280;60991;51.278;22.550;2023-06-22T01:33:21;99225.34;;;23.82;59.17
72855;BME280;60991;51.278;22.550;2023-06-22T01:34:52;99230.59;;;23.88;58.86
72855;BME280;60991;51.278;22.550;2023-06-22T01:36:24;99239.19;;;23.90;59.17
72855;BME280;60991;51.278;22.550;2023-06-22T01:37:55;99231.38;;;23.88;59.30
72855;BME280;60991;51.278;22.550;2023-06-22T01:39:26;99228.66;;;23.88;59.06
72855;BME280;60991;51.278;22.550;2023-06-22T01:40:57;99228.47;;;23.93;58.76
72855;BME280;60991;51.278;22.550;2023-06-22T01:42:28;99224.75;;;23.98;58.64
72855;BME280;60991;51.278;22.550;2023-06-22T01:43:59;99220.34;;;23.93;59.27
72855;BME280;60991;51.278;22.550;2023-06-22T01:45:30;99230.72;;;23.91;58.99
72855;BME280;60991;51.278;22.550;2023-06-22T01:47:01;99224.84;;;23.89;59.23
72855;BME280;60991;51.278;22.550;2023-06-22T01:48:32;99227.06;;;23.87;59.03
72855;BME280;60991;51.278;22.550;2023-06-22T01:50:02;99225.16;;;23.88;59.35
72855;BME280;60991;51.278;22.550;2023-06-22T01:51:33;99226.78;;;23.80;59.35
72855;BME280;60991;51.278;22.550;2023-06-22T01:53:03;99234.34;;;23.74;59.58
72855;BME280;60991;51.278;22.550;2023-06-22T01:54:33;99234.34;;;23.74;59.76
72855;BME280;60991;51.278;22.550;2023-06-22T01:56:04;99237.41;;;23.64;60.15
72855;BME280;60991;51.278;22.550;2023-06-22T01:57:35;99232.31;;;23.63;60.49
72855;BME280;60991;51.278;22.550;2023-06-22T01:59:09;99229.78;;;23.58;60.32
72855;BME280;60991;51.278;22.550;2023-06-22T02:00:48;99230.13;;;23.56;60.68
72855;BME280;60991;51.278;22.550;2023-06-22T02:02:21;99238.25;;;23.47;60.56
72855;BME280;60991;51.278;22.550;2023-06-22T02:04:09;99234.03;;;23.38;61.35
72855;BME280;60991;51.278;22.550;2023-06-22T02:05:49;99232.38;;;23.45;61.02
72855;BME280;60991;51.278;22.550;2023-06-22T02:07:23;99231.63;;;23.36;61.56
72855;BME280;60991;51.278;22.550;2023-06-22T02:08:58;99228.78;;;23.33;61.51
72855;BME280;60991;51.278;22.550;2023-06-22T02:10:29;99242.16;;;23.38;61.35
72855;BME280;60991;51.278;22.550;2023-06-22T02:12:02;99244.97;;;23.41;61.31
72855;BME280;60991;51.278;22.550;2023-06-22T02:13:33;99239.75;;;23.36;61.53
72855;BME280;60991;51.278;22.550;2023-06-22T02:15:04;99239.94;;;23.31;61.82
72855;BME280;60991;51.278;22.550;2023-06-22T02:16:35;99242.53;;;23.19;62.23
72855;BME280;60991;51.278;22.550;2023-06-22T02:18:06;99242.38;;;23.16;62.02
72855;BME280;60991;51.278;22.550;2023-06-22T02:19:37;99238.09;;;23.14;62.12
72855;BME280;60991;51.278;22.550;2023-06-22T02:21:07;99242.84;;;23.18;62.40
72855;BME280;60991;51.278;22.550;2023-06-22T02:22:38;99253.84;;;23.12;62.38
72855;BME280;60991;51.278;22.550;2023-06-22T02:24:08;99255.44;;;23.13;62.41
72855;BME280;60991;51.278;22.550;2023-06-22T02:25:38;99254.34;;;23.14;62.43
72855;BME280;60991;51.278;22.550;2023-06-22T02:27:08;99254.81;;;23.17;62.74
72855;BME280;60991;51.278;22.550;2023-06-22T02:28:39;99265.31;;;23.18;63.01
72855;BME280;60991;51.278;22.550;2023-06-22T02:30:09;99265.97;;;23.15;62.67
72855;BME280;60991;51.278;22.550;2023-06-22T02:31:39;99269.16;;;23.08;62.85
72855;BME280;60991;51.278;22.550;2023-06-22T02:33:10;99271.72;;;23.05;63.33
72855;BME280;60991;51.278;22.550;2023-06-22T02:34:40;99271.53;;;23.01;63.11
72855;BME280;60991;51.278;22.550;2023-06-22T02:36:10;99266.50;;;22.91;63.40
72855;BME280;60991;51.278;22.550;2023-06-22T02:37:41;99280.97;;;22.95;63.24
72855;BME280;60991;51.278;22.550;2023-06-22T02:39:11;99268.09;;;22.92;63.38
72855;BME280;60991;51.278;22.550;2023-06-22T02:40:41;99272.84;;;22.95;63.31
72855;BME280;60991;51.278;22.550;2023-06-22T02:42:11;99276.97;;;23.01;63.57
72855;BME280;60991;51.278;22.550;2023-06-22T02:43:41;99274.41;;;23.05;63.04
72855;BME280;60991;51.278;22.550;2023-06-22T02:45:12;99278.13;;;23.00;63.73
72855;BME280;60991;51.278;22.550;2023-06-22T02:46:42;99280.16;;;23.03;63.16
72855;BME280;60991;51.278;22.550;2023-06-22T02:48:12;99284.94;;;23.06;63.76
72855;BME280;60991;51.278;22.550;2023-06-22T02:49:43;99290.03;;;23.08;63.33
72855;BME280;60991;51.278;22.550;2023-06-22T02:51:13;99281.59;;;23.01;63.86
72855;BME280;60991;51.278;22.550;2023-06-22T02:52:43;99286.22;;;23.00;63.75
72855;BME280;60991;51.278;22.550;2023-06-22T02:54:13;99283.84;;;22.99;63.54
72855;BME280;60991;51.278;22.550;2023-06-22T02:55:44;99280.97;;;22.87;63.98
72855;BME280;60991;51.278;22.550;2023-06-22T02:57:14;99270.94;;;22.87;64.00
72855;BME280;60991;51.278;22.550;2023-06-22T02:58:44;99283.88;;;22.82;64.39
72855;BME280;60991;51.278;22.550;2023-06-22T03:00:14;99293.56;;;22.83;64.36
72855;BME280;60991;51.278;22.550;2023-06-22T03:01:45;99292.31;;;22.80;64.63
72855;BME280;60991;51.278;22.550;2023-06-22T03:03:15;99289.91;;;22.87;64.30
72855;BME280;60991;51.278;22.550;2023-06-22T03:04:45;99292.28;;;22.89;64.26
72855;BME280;60991;51.278;22.550;2023-06-22T03:06:15;99283.69;;;22.87;64.57
72855;BME280;60991;51.278;22.550;2023-06-22T03:07:46;99288.63;;;22.85;64.44
72855;BME280;60991;51.278;22.550;2023-06-22T03:09:16;99283.22;;;22.85;64.78
72855;BME280;60991;51.278;22.550;2023-06-22T03:10:47;99281.28;;;22.85;64.47
72855;BME280;60991;51.278;22.550;2023-06-22T03:12:17;99278.47;;;22.82;64.70
72855;BME280;60991;51.278;22.550;2023-06-22T03:13:47;99280.38;;;22.81;64.94
72855;BME280;60991;51.278;22.550;2023-06-22T03:15:17;99280.81;;;22.83;64.76
72855;BME280;60991;51.278;22.550;2023-06-22T03:16:48;99272.84;;;22.87;64.47
72855;BME280;60991;51.278;22.550;2023-06-22T03:18:18;99282.88;;;22.86;64.89
72855;BME280;60991;51.278;22.550;2023-06-22T03:19:48;99296.09;;;22.88;64.85
72855;BME280;60991;51.278;22.550;2023-06-22T03:21:19;99300.72;;;22.87;65.06
72855;BME280;60991;51.278;22.550;2023-06-22T03:22:49;99303.59;;;22.91;65.22
72855;BME280;60991;51.278;22.550;2023-06-22T03:24:20;99299.78;;;22.92;64.72
72855;BME280;60991;51.278;22.550;2023-06-22T03:25:50;99299.44;;;22.93;64.93
72855;BME280;60991;51.278;22.550;2023-06-22T03:27:20;99291.81;;;22.87;65.10
72855;BME280;60991;51.278;22.550;2023-06-22T03:28:51;99288.78;;;22.88;65.24
72855;BME280;60991;51.278;22.550;2023-06-22T03:30:21;99281.13;;;22.90;64.91
72855;BME280;60991;51.278;22.550;2023-06-22T03:31:51;99285.13;;;22.93;65.19
72855;BME280;60991;51.278;22.550;2023-06-22T03:33:21;99286.38;;;22.95;65.01
72855;BME280;60991;51.278;22.550;2023-06-22T03:34:51;99286.06;;;22.97;64.83
72855;BME280;60991;51.278;22.550;2023-06-22T03:36:22;99293.88;;;22.98;65.29
72855;BME280;60991;51.278;22.550;2023-06-22T03:37:52;99288.94;;;23.00;65.39
72855;BME280;60991;51.278;22.550;2023-06-22T03:39:22;99297.50;;;23.02;65.11
72855;BME280;60991;51.278;22.550;2023-06-22T03:40:52;99293.88;;;22.98;65.00
72855;BME280;60991;51.278;22.550;2023-06-22T03:42:23;99300.41;;;22.97;65.16
72855;BME280;60991;51.278;22.550;2023-06-22T03:43:53;99299.28;;;22.98;65.23
72855;BME280;60991;51.278;22.550;2023-06-22T03:45:23;99286.88;;;22.97;65.30
72855;BME280;60991;51.278;22.550;2023-06-22T03:46:53;99294.66;;;22.99;65.47
72855;BME280;60991;51.278;22.550;2023-06-22T03:48:23;99291.34;;;22.93;65.42
72855;BME280;60991;51.278;22.550;2023-06-22T03:49:54;99293.56;;;22.91;65.72
72855;BME280;60991;51.278;22.550;2023-06-22T03:51:24;99293.88;;;22.90;65.47
72855;BME280;60991;51.278;22.550;2023-06-22T03:52:54;99300.41;;;22.89;65.62
72855;BME280;60991;51.278;22.550;2023-06-22T03:54:24;99297.69;;;22.89;65.75
72855;BME280;60991;51.278;22.550;2023-06-22T03:55:55;99299.13;;;22.95;65.77
72855;BME280;60991;51.278;22.550;2023-06-22T03:57:25;99298.50;;;22.98;65.58
72855;BME280;60991;51.278;22.550;2023-06-22T03:58:55;99291.34;;;22.93;65.89
72855;BME280;60991;51.278;22.550;2023-06-22T04:00:25;99301.38;;;22.93;66.06
72855;BME280;60991;51.278;22.550;2023-06-22T04:01:56;99308.53;;;22.89;66.13
72855;BME280;60991;51.278;22.550;2023-06-22T04:03:26;99318.41;;;22.93;66.02
72855;BME280;60991;51.278;22.550;2023-06-22T04:04:56;99318.56;;;22.88;66.44
72855;BME280;60991;51.278;22.550;2023-06-22T04:06:27;99311.88;;;22.86;66.44
72855;BME280;60991;51.278;22.550;2023-06-22T04:07:57;99309.03;;;22.82;66.48
72855;BME280;60991;51.278;22.550;2023-06-22T04:09:27;99316.50;;;22.85;66.82
72855;BME280;60991;51.278;22.550;2023-06-22T04:10:57;99311.56;;;22.87;66.82
72855;BME280;60991;51.278;22.550;2023-06-22T04:12:27;99313.00;;;22.93;66.40
72855;BME280;60991;51.278;22.550;2023-06-22T04:13:58;99313.16;;;22.97;66.76
72855;BME280;60991;51.278;22.550;2023-06-22T04:15:28;99313.47;;;22.87;66.72
72855;BME280;60991;51.278;22.550;2023-06-22T04:16:58;99315.22;;;22.91;66.83
72855;BME280;60991;51.278;22.550;2023-06-22T04:18:29;99316.00;;;22.92;66.78
72855;BME280;60991;51.278;22.550;2023-06-22T04:19:59;99320.16;;;22.98;66.66
72855;BME280;60991;51.278;22.550;2023-06-22T04:21:29;99318.56;;;22.97;66.80
72855;BME280;60991;51.278;22.550;2023-06-22T04:22:59;99328.88;;;23.03;66.50
72855;BME280;60991;51.278;22.550;2023-06-22T04:24:30;99334.31;;;23.03;66.04
72855;BME280;60991;51.278;22.550;2023-06-22T04:26:00;99340.34;;;23.09;66.14
72855;BME280;60991;51.278;22.550;2023-06-22T04:27:30;99341.94;;;23.10;66.15
72855;BME280;60991;51.278;22.550;2023-06-22T04:29:00;99337.66;;;23.09;65.82
72855;BME280;60991;51.278;22.550;2023-06-22T04:30:32;99340.03;;;23.10;65.92
72855;BME280;60991;51.278;22.550;2023-06-22T04:32:03;99334.31;;;23.12;65.80
72855;BME280;60991;51.278;22.550;2023-06-22T04:33:33;99341.31;;;23.13;65.88
72855;BME280;60991;51.278;22.550;2023-06-22T04:35:04;99341.47;;;23.08;66.22
72855;BME280;60991;51.278;22.550;2023-06-22T04:36:39;99334.31;;;22.95;66.40
72855;BME280;60991;51.278;22.550;2023-06-22T04:38:11;99342.09;;;23.05;66.05
72855;BME280;60991;51.278;22.550;2023-06-22T04:39:43;99340.66;;;23.07;66.25
72855;BME280;60991;51.278;22.550;2023-06-22T04:41:13;99341.78;;;23.15;66.10
72855;BME280;60991;51.278;22.550;2023-06-22T04:42:43;99346.22;;;23.20;66.23
72855;BME280;60991;51.278;22.550;2023-06-22T04:44:16;99347.00;;;23.20;66.21
72855;BME280;60991;51.278;22.550;2023-06-22T04:45:46;99340.63;;;23.25;65.98
72855;BME280;60991;51.278;22.550;2023-06-22T04:47:16;99344.47;;;23.24;66.30
72855;BME280;60991;51.278;22.550;2023-06-22T04:48:46;99345.25;;;23.24;66.20
72855;BME280;60991;51.278;22.550;2023-06-22T04:50:17;99345.91;;;23.21;66.62
72855;BME280;60991;51.278;22.550;2023-06-22T04:51:47;99344.16;;;23.25;66.17
72855;BME280;60991;51.278;22.550;2023-06-22T04:53:18;99338.56;;;23.30;66.37
72855;BME280;60991;51.278;22.550;2023-06-22T04:54:48;99333.78;;;23.36;66.14
72855;BME280;60991;51.278;22.550;2023-06-22T04:56:19;99332.66;;;23.37;65.83
72855;BME280;60991;51.278;22.550;2023-06-22T04:57:49;99332.63;;;23.45;66.07
72855;BME280;60991;51.278;22.550;2023-06-22T04:59:19;99339.47;;;23.43;65.96
72855;BME280;60991;51.278;22.550;2023-06-22T05:00:49;99334.06;;;23.43;65.86
72855;BME280;60991;51.278;22.550;2023-06-22T05:02:19;99337.59;;;23.52;65.81
72855;BME280;60991;51.278;22.550;2023-06-22T05:03:50;99335.34;;;23.54;65.82
72855;BME280;60991;51.278;22.550;2023-06-22T05:05:20;99336.59;;;23.57;65.60
72855;BME280;60991;51.278;22.550;2023-06-22T05:06:53;99340.59;;;23.51;65.75
72855;BME280;60991;51.278;22.550;2023-06-22T05:08:24;99337.59;;;23.52;65.36
72855;BME280;60991;51.278;22.550;2023-06-22T05:09:54;99336.59;;;23.57;65.61
72855;BME280;60991;51.278;22.550;2023-06-22T05:11:26;99334.03;;;23.60;65.19
72855;BME280;60991;51.278;22.550;2023-06-22T05:12:56;99333.53;;;23.67;65.25
72855;BME280;60991;51.278;22.550;2023-06-22T05:14:26;99333.22;;;23.68;65.33
72855;BME280;60991;51.278;22.550;2023-06-22T05:15:56;99330.97;;;23.70;65.30
72855;BME280;60991;51.278;22.550;2023-06-22T05:17:27;99331.44;;;23.72;64.87
72855;BME280;60991;51.278;22.550;2023-06-22T05:18:57;99336.56;;;23.74;65.01
72855;BME280;60991;51.278;22.550;2023-06-22T05:20:28;99332.03;;;23.78;65.13
72855;BME280;60991;51.278;22.550;2023-06-22T05:21:58;99340.66;;;23.80;65.16
72855;BME280;60991;51.278;22.550;2023-06-22T05:23:28;99331.41;;;23.81;64.95
72855;BME280;60991;51.278;22.550;2023-06-22T05:24:58;99336.81;;;23.81;65.26
72855;BME280;60991;51.278;22.550;2023-06-22T05:26:30;99340.63;;;23.89;64.78
72855;BME280;60991;51.278;22.550;2023-06-22T05:28:00;99338.56;;;23.86;64.97
72855;BME280;60991;51.278;22.550;2023-06-22T05:29:31;99335.56;;;23.78;65.02
72855;BME280;60991;51.278;22.550;2023-06-22T05:31:01;99336.03;;;23.80;65.18
72855;BME280;60991;51.278;22.550;2023-06-22T05:32:31;99330.44;;;23.86;65.21
72855;BME280;60991;51.278;22.550;2023-06-22T05:34:01;99339.84;;;23.79;65.49
72855;BME280;60991;51.278;22.550;2023-06-22T05:35:32;99338.25;;;23.78;65.28
72855;BME280;60991;51.278;22.550;2023-06-22T05:37:02;99331.13;;;23.74;65.37
72855;BME280;60991;51.278;22.550;2023-06-22T05:38:33;99331.94;;;23.74;65.33
72855;BME280;60991;51.278;22.550;2023-06-22T05:40:04;99333.38;;;23.72;65.47
72855;BME280;60991;51.278;22.550;2023-06-22T05:41:34;99334.47;;;23.71;65.51
72855;BME280;60991;51.278;22.550;2023-06-22T05:43:04;99333.53;;;23.67;65.77
72855;BME280;60991;51.278;22.550;2023-06-22T05:44:34;99338.31;;;23.70;65.55
72855;BME280;60991;51.278;22.550;2023-06-22T05:46:05;99341.63;;;23.75;65.49
72855;BME280;60991;51.278;22.550;2023-06-22T05:47:35;99334.34;;;23.67;65.81
72855;BME280;60991;51.278;22.550;2023-06-22T05:49:05;99335.94;;;23.68;65.85
72855;BME280;60991;51.278;22.550;2023-06-22T05:50:36;99331.78;;;23.71;66.04
72855;BME280;60991;51.278;22.550;2023-06-22T05:52:07;99336.19;;;23.75;65.66
72855;BME280;60991;51.278;22.550;2023-06-22T05:53:37;99339.25;;;23.74;65.95
72855;BME280;60991;51.278;22.550;2023-06-22T05:55:07;99340.25;;;23.61;66.42
72855;BME280;60991;51.278;22.550;2023-06-22T05:56:38;99345.03;;;23.64;66.59
72855;BME280;60991;51.278;22.550;2023-06-22T05:58:08;99335.63;;;23.61;66.85
72855;BME280;60991;51.278;22.550;2023-06-22T05:59:38;99335.94;;;23.60;66.76
72855;BME280;60991;51.278;22.550;2023-06-22T06:01:09;99339.50;;;23.52;67.08
72855;BME280;60991;51.278;22.550;2023-06-22T06:02:39;99333.44;;;23.55;66.83
72855;BME280;60991;51.278;22.550;2023-06-22T06:04:09;99324.13;;;23.64;67.13
72855;BME280;60991;51.278;22.550;2023-06-22T06:05:39;99327.94;;;23.72;66.70
72855;BME280;60991;51.278;22.550;2023-06-22T06:07:10;99335.59;;;23.70;66.56
72855;BME280;60991;51.278;22.550;2023-06-22T06:08:41;99334.63;;;23.74;66.79
72855;BME280;60991;51.278;22.550;2023-06-22T06:10:11;99341.50;;;23.72;67.00
72855;BME280;60991;51.278;22.550;2023-06-22T06:11:41;99345.00;;;23.72;67.02
72855;BME280;60991;51.278;22.550;2023-06-22T06:13:11;99343.56;;;23.75;66.43
72855;BME280;60991;51.278;22.550;2023-06-22T06:14:42;99342.72;;;23.83;66.74
72855;BME280;60991;51.278;22.550;2023-06-22T06:16:12;99344.16;;;23.80;67.05
72855;BME280;60991;51.278;22.550;2023-06-22T06:17:50;99351.81;;;23.78;67.02
72855;BME280;60991;51.278;22.550;2023-06-22T06:19:21;99345.09;;;23.85;66.81
72855;BME280;60991;51.278;22.550;2023-06-22T06:20:51;99354.69;;;23.82;67.20
72855;BME280;60991;51.278;22.550;2023-06-22T06:22:21;99358.50;;;23.81;67.02
72855;BME280;60991;51.278;22.550;2023-06-22T06:23:51;99352.13;;;23.77;67.14
72855;BME280;60991;51.278;22.550;2023-06-22T06:25:22;99353.72;;;23.78;67.31
72855;BME280;60991;51.278;22.550;2023-06-22T06:26:52;99347.19;;;23.79;66.96
72855;BME280;60991;51.278;22.550;2023-06-22T06:28:24;99352.25;;;23.89;66.87
72855;BME280;60991;51.278;22.550;2023-06-22T06:29:55;99344.28;;;23.93;66.79
72855;BME280;60991;51.278;22.550;2023-06-22T06:31:26;99359.94;;;23.87;67.17
72855;BME280;60991;51.278;22.550;2023-06-22T06:32:56;99343.00;;;23.90;67.16
72855;BME280;60991;51.278;22.550;2023-06-22T06:34:26;99347.78;;;23.93;67.13
72855;BME280;60991;51.278;22.550;2023-06-22T06:35:56;99347.63;;;23.90;67.64
72855;BME280;60991;51.278;22.550;2023-06-22T06:37:27;99348.28;;;23.87;67.78
72855;BME280;60991;51.278;22.550;2023-06-22T06:38:57;99348.75;;;23.89;67.82
72855;BME280;60991;51.278;22.550;2023-06-22T06:40:27;99349.34;;;23.94;67.48
72855;BME280;60991;51.278;22.550;2023-06-22T06:41:57;99349.34;;;23.94;67.88
72855;BME280;60991;51.278;22.550;2023-06-22T06:43:27;99344.72;;;23.95;67.66
72855;BME280;60991;51.278;22.550;2023-06-22T06:44:58;99346.13;;;24.01;67.52
72855;BME280;60991;51.278;22.550;2023-06-22T06:46:28;99348.03;;;24.09;67.93
72855;BME280;60991;51.278;22.550;2023-06-22T06:47:58;99350.84;;;24.12;67.52
72855;BME280;60991;51.278;22.550;2023-06-22T06:49:28;99349.53;;;24.18;67.51
72855;BME280;60991;51.278;22.550;2023-06-22T06:50:59;99357.69;;;24.18;67.17
72855;BME280;60991;51.278;22.550;2023-06-22T06:52:29;99350.19;;;24.15;67.23
72855;BME280;60991;51.278;22.550;2023-06-22T06:53:59;99352.72;;;24.21;67.42
72855;BME280;60991;51.278;22.550;2023-06-22T06:55:29;99351.28;;;24.23;67.98
72855;BME280;60991;51.278;22.550;2023-06-22T06:57:00;99346.19;;;24.22;68.01
72855;BME280;60991;51.278;22.550;2023-06-22T06:58:30;99343.63;;;24.25;67.74
72855;BME280;60991;51.278;22.550;2023-06-22T07:00:00;99341.97;;;24.33;67.71
72855;BME280;60991;51.278;22.550;2023-06-22T07:01:31;99331.59;;;24.35;67.53
72855;BME280;60991;51.278;22.550;2023-06-22T07:03:01;99339.72;;;24.35;67.43
72855;BME280;60991;51.278;22.550;2023-06-22T07:04:31;99340.53;;;24.35;67.17
72855;BME280;60991;51.278;22.550;2023-06-22T07:06:01;99336.22;;;24.34;67.41
72855;BME280;60991;51.278;22.550;2023-06-22T07:07:32;99343.19;;;24.44;67.01
72855;BME280;60991;51.278;22.550;2023-06-22T07:09:02;99338.25;;;24.46;67.35
72855;BME280;60991;51.278;22.550;2023-06-22T07:10:33;99338.91;;;24.43;66.88
72855;BME280;60991;51.278;22.550;2023-06-22T07:12:03;99328.69;;;24.40;67.19
72855;BME280;60991;51.278;22.550;2023-06-22T07:13:34;99333.19;;;24.36;67.13
72855;BME280;60991;51.278;22.550;2023-06-22T07:15:05;99335.84;;;24.44;67.27
72855;BME280;60991;51.278;22.550;2023-06-22T07:16:36;99345.44;;;24.42;67.48
72855;BME280;60991;51.278;22.550;2023-06-22T07:18:06;99340.16;;;24.45;67.18
72855;BME280;60991;51.278;22.550;2023-06-22T07:19:36;99341.28;;;24.44;67.01
72855;BME280;60991;51.278;22.550;2023-06-22T07:21:07;99344.56;;;24.50;66.92
72855;BME280;60991;51.278;22.550;2023-06-22T07:22:42;99351.47;;;24.47;67.07
72855;BME280;60991;51.278;22.550;2023-06-22T07:24:12;99355.91;;;24.52;66.96
72855;BME280;60991;51.278;22.550;2023-06-22T07:25:43;99355.91;;;24.52;66.93
72855;BME280;60991;51.278;22.550;2023-06-22T07:27:13;99357.31;;;24.58;67.13
72855;BME280;60991;51.278;22.550;2023-06-22T07:28:43;99359.34;;;24.61;67.09
72855;BME280;60991;51.278;22.550;2023-06-22T07:30:13;99361.19;;;24.69;67.35
72855;BME280;60991;51.278;22.550;2023-06-22T07:31:44;99349.81;;;24.76;67.40
72855;BME280;60991;51.278;22.550;2023-06-22T07:33:14;99344.19;;;24.81;66.96
72855;BME280;60991;51.278;22.550;2023-06-22T07:34:44;99339.31;;;24.86;66.64
72855;BME280;60991;51.278;22.550;2023-06-22T07:36:16;99338.00;;;24.93;66.83
72855;BME280;60991;51.278;22.550;2023-06-22T07:37:47;99338.09;;;25.05;66.77
72855;BME280;60991;51.278;22.550;2023-06-22T07:39:17;99341.03;;;25.12;66.70
72855;BME280;60991;51.278;22.550;2023-06-22T07:40:47;99341.19;;;25.15;66.30
72855;BME280;60991;51.278;22.550;2023-06-22T07:42:17;99341.19;;;25.15;65.93
72855;BME280;60991;51.278;22.550;2023-06-22T07:43:48;99343.09;;;25.15;65.78
72855;BME280;60991;51.278;22.550;2023-06-22T07:45:18;99351.25;;;25.15;65.85
72855;BME280;60991;51.278;22.550;2023-06-22T07:46:48;99343.22;;;25.18;65.80
72855;BME280;60991;51.278;22.550;2023-06-22T07:48:20;99347.66;;;25.23;65.89
72855;BME280;60991;51.278;22.550;2023-06-22T07:49:51;99348.44;;;25.24;66.38
72855;BME280;60991;51.278;22.550;2023-06-22T07:51:21;99345.38;;;25.25;66.46
72855;BME280;60991;51.278;22.550;2023-06-22T07:52:51;99349.03;;;25.29;66.28
72855;BME280;60991;51.278;22.550;2023-06-22T07:54:21;99351.88;;;25.33;65.71
72855;BME280;60991;51.278;22.550;2023-06-22T07:55:52;99346.56;;;25.36;65.91
72855;BME280;60991;51.278;22.550;2023-06-22T07:57:22;99349.50;;;25.43;65.88
72855;BME280;60991;51.278;22.550;2023-06-22T07:58:52;99351.88;;;25.45;66.03